Time;durP1;ratioP1;P1;durP2;ratioP2;P2;SDS_P1;SDS_P2;PMS_P1;PMS_P2;Temp;Humidity;BMP_temperature;BMP_pressure;BME280_temperature;BME280_humidity;BME280_pressure;Samples;Min_cycle;Max_cycle;Signal;HPM_P1;HPM_P2
2023/06/01 00:01:01;;;;;;;12.15;5.95;;;11.80;99.90;;;;;;5073886;28;20175;-71
2023/06/01 00:03:29;;;;;;;11.30;5.45;;;11.80;99.90;;;;;;5069420;28;20031;-62
2023/06/01 00:05:56;;;;;;;11.63;5.07;;;11.80;99.90;;;;;;5073988;28;21684;-61
2023/06/01 00:08:22;;;;;;;13.27;5.40;;;11.90;99.90;;;;;;5068399;28;20043;-68
2023/06/01 00:10:48;;;;;;;8.68;4.35;;;12.00;99.90;;;;;;5078202;28;20025;-64
2023/06/01 00:13:14;;;;;;;9.73;5.20;;;12.10;99.90;;;;;;5074357;28;20020;-62
2023/06/01 00:15:40;;;;;;;11.13;6.20;;;12.10;99.90;;;;;;5067770;28;20081;-64
2023/06/01 00:18:08;;;;;;;10.93;6.53;;;12.10;99.90;;;;;;5071640;28;20024;-64
2023/06/01 00:20:34;;;;;;;11.23;5.38;;;12.10;99.90;;;;;;5052094;28;20503;-63
2023/06/01 00:23:00;;;;;;;10.68;5.88;;;12.00;99.90;;;;;;5069297;28;20031;-60
2023/06/01 00:25:26;;;;;;;12.82;6.32;;;12.00;99.90;;;;;;5066563;28;20111;-62
2023/06/01 00:27:51;;;;;;;12.45;6.18;;;12.00;99.90;;;;;;5069598;28;20104;-64
2023/06/01 00:30:17;;;;;;;10.95;5.68;;;12.00;99.90;;;;;;5069939;28;20036;-60
2023/06/01 00:32:43;;;;;;;12.30;6.15;;;11.90;99.90;;;;;;5066647;28;20384;-62
2023/06/01 00:35:08;;;;;;;10.93;6.47;;;11.90;99.90;;;;;;5070492;28;20130;-65
2023/06/01 00:37:34;;;;;;;16.63;6.85;;;11.90;99.90;;;;;;5051055;28;20024;-63
2023/06/01 00:40:00;;;;;;;12.75;6.32;;;11.90;99.90;;;;;;5049075;28;20496;-60
2023/06/01 00:42:26;;;;;;;13.65;6.07;;;11.90;99.90;;;;;;5067871;28;20381;-64
2023/06/01 00:44:53;;;;;;;14.20;8.18;;;11.90;99.90;;;;;;5050408;28;20037;-64
2023/06/01 00:47:19;;;;;;;13.85;6.88;;;11.90;99.90;;;;;;5051673;28;20025;-61
2023/06/01 00:49:45;;;;;;;11.73;6.57;;;11.90;99.90;;;;;;5066156;28;20035;-61
2023/06/01 00:52:12;;;;;;;13.88;7.43;;;11.90;99.90;;;;;;5074683;28;20017;-61
2023/06/01 00:54:38;;;;;;;11.30;6.93;;;11.90;99.90;;;;;;5045725;28;20029;-60
2023/06/01 00:57:03;;;;;;;13.27;7.40;;;11.90;99.90;;;;;;5053661;28;20377;-61
2023/06/01 00:59:29;;;;;;;11.73;6.85;;;11.90;99.90;;;;;;5053453;28;20053;-60
2023/06/01 01:01:55;;;;;;;16.75;8.10;;;11.80;99.90;;;;;;5054530;28;20025;-61
2023/06/01 01:04:25;;;;;;;13.27;7.72;;;11.80;99.90;;;;;;5036415;28;20480;-64
2023/06/01 01:07:11;;;;;;;16.33;7.78;;;11.80;99.90;;;;;;5066769;28;20464;-62
2023/06/01 01:09:49;;;;;;;17.63;7.57;;;11.80;99.90;;;;;;5074658;28;20025;-60
2023/06/01 01:12:29;;;;;;;12.38;6.72;;;11.80;99.90;;;;;;5052629;28;20021;-60
2023/06/01 01:15:08;;;;;;;11.50;6.57;;;11.80;99.90;;;;;;5072440;28;20025;-60
2023/06/01 01:17:38;;;;;;;12.95;6.85;;;11.80;99.90;;;;;;5049558;28;20021;-60
2023/06/01 01:20:12;;;;;;;10.70;6.47;;;11.80;99.90;;;;;;5065105;28;20174;-60
2023/06/01 01:22:38;;;;;;;18.35;8.35;;;11.80;99.90;;;;;;5066364;28;20331;-61
2023/06/01 01:25:18;;;;;;;12.85;7.10;;;11.70;99.90;;;;;;5069936;28;20021;-60
2023/06/01 01:28:19;;;;;;;11.18;7.00;;;11.70;99.90;;;;;;5069257;28;20470;-60
2023/06/01 01:30:46;;;;;;;11.40;7.18;;;11.70;99.90;;;;;;5044128;28;20123;-60
2023/06/01 01:33:13;;;;;;;16.00;7.47;;;11.70;99.90;;;;;;5064313;28;20044;-60
2023/06/01 01:35:39;;;;;;;11.88;6.45;;;11.60;99.90;;;;;;5067856;28;20032;-59
2023/06/01 01:38:05;;;;;;;10.80;6.32;;;11.60;99.90;;;;;;5047726;28;20104;-62
2023/06/01 01:40:30;;;;;;;11.75;6.47;;;11.50;99.90;;;;;;5052985;28;20127;-71
2023/06/01 01:42:56;;;;;;;12.50;5.75;;;11.60;99.90;;;;;;5067546;28;20365;-67
2023/06/01 01:45:24;;;;;;;13.93;7.45;;;11.60;99.90;;;;;;5063651;28;20025;-67
2023/06/01 01:48:10;;;;;;;14.43;7.95;;;11.50;99.90;;;;;;5064599;28;20849;-70
2023/06/01 01:50:52;;;;;;;14.27;8.13;;;11.60;99.90;;;;;;5070891;28;20481;-69
2023/06/01 01:53:19;;;;;;;15.82;7.57;;;11.60;99.90;;;;;;5054015;28;20068;-69
2023/06/01 01:55:49;;;;;;;14.57;7.97;;;11.60;99.90;;;;;;5068471;28;20535;-70
2023/06/01 01:58:15;;;;;;;16.30;8.05;;;11.60;99.90;;;;;;5063451;28;20036;-67
2023/06/01 02:00:43;;;;;;;11.13;7.07;;;11.60;99.90;;;;;;5065126;28;20048;-68
2023/06/01 02:03:16;;;;;;;13.77;7.80;;;11.60;99.90;;;;;;5067558;28;20758;-60
2023/06/01 02:05:42;;;;;;;13.00;8.02;;;11.70;99.90;;;;;;5049830;28;20033;-61
2023/06/01 02:08:07;;;;;;;15.13;7.82;;;11.70;99.90;;;;;;5060404;28;20017;-60
2023/06/01 02:10:33;;;;;;;17.02;8.07;;;11.70;99.90;;;;;;5062832;28;20349;-60
2023/06/01 02:12:59;;;;;;;16.40;8.63;;;11.70;99.90;;;;;;5045954;28;20484;-64
2023/06/01 02:15:25;;;;;;;17.15;8.25;;;11.70;99.90;;;;;;5065209;28;20036;-60
2023/06/01 02:17:51;;;;;;;14.85;8.60;;;11.70;99.90;;;;;;5062492;28;20024;-59
2023/06/01 02:20:17;;;;;;;14.60;7.78;;;11.70;99.90;;;;;;5062976;28;20441;-64
2023/06/01 02:22:43;;;;;;;14.02;8.30;;;11.70;99.90;;;;;;5053550;28;20033;-64
2023/06/01 02:25:08;;;;;;;15.65;7.93;;;11.70;99.90;;;;;;5063957;28;20033;-59
2023/06/01 02:27:34;;;;;;;15.20;8.15;;;11.60;99.90;;;;;;5063560;28;20013;-60
2023/06/01 02:30:00;;;;;;;15.02;7.65;;;11.70;99.90;;;;;;5067648;28;20047;-64
2023/06/01 02:32:26;;;;;;;15.45;8.57;;;11.70;99.90;;;;;;5068212;28;20024;-60
2023/06/01 02:34:52;;;;;;;14.93;7.75;;;11.60;99.90;;;;;;5063772;28;20055;-59
2023/06/01 02:37:17;;;;;;;13.80;9.00;;;11.60;99.90;;;;;;5046353;28;20107;-62
2023/06/01 02:39:43;;;;;;;18.23;8.63;;;11.60;99.90;;;;;;5067089;28;20037;-60
2023/06/01 02:42:09;;;;;;;15.15;8.98;;;11.60;99.90;;;;;;5066905;28;20035;-59
2023/06/01 02:44:34;;;;;;;17.50;8.32;;;11.60;99.90;;;;;;5060881;28;20036;-59
2023/06/01 02:47:00;;;;;;;12.80;7.40;;;11.60;99.90;;;;;;5061461;28;20033;-60
2023/06/01 02:49:25;;;;;;;12.13;7.72;;;11.60;99.90;;;;;;5068938;28;20351;-59
2023/06/01 02:51:51;;;;;;;13.95;8.13;;;11.60;99.90;;;;;;5072362;28;20055;-64
2023/06/01 02:54:17;;;;;;;16.75;7.80;;;11.60;99.90;;;;;;5069169;28;20036;-61
2023/06/01 02:56:42;;;;;;;15.40;7.07;;;11.50;99.90;;;;;;5072029;28;20426;-64
2023/06/01 02:59:08;;;;;;;15.93;7.30;;;11.60;99.90;;;;;;5072383;28;20083;-62
2023/06/01 03:01:35;;;;;;;13.55;7.00;;;11.50;99.90;;;;;;5071286;28;20373;-65
2023/06/01 03:04:04;;;;;;;16.92;7.53;;;11.50;99.90;;;;;;5069734;28;20021;-63
2023/06/01 03:06:37;;;;;;;12.43;6.75;;;11.50;99.90;;;;;;5070572;28;20111;-60
2023/06/01 03:09:05;;;;;;;11.68;6.93;;;11.50;99.90;;;;;;5072924;28;20021;-61
2023/06/01 03:11:31;;;;;;;12.88;6.70;;;11.50;99.90;;;;;;5052873;28;20036;-61
2023/06/01 03:13:56;;;;;;;13.05;6.60;;;11.50;99.90;;;;;;5061410;28;20082;-60
2023/06/01 03:16:23;;;;;;;14.57;6.88;;;11.50;99.90;;;;;;5064564;28;20017;-60
2023/06/01 03:18:48;;;;;;;11.65;6.78;;;11.40;99.90;;;;;;5062706;28;20028;-64
2023/06/01 03:21:15;;;;;;;15.43;7.35;;;11.50;99.90;;;;;;5062504;28;20420;-65
2023/06/01 03:23:43;;;;;;;15.80;7.05;;;11.50;99.90;;;;;;5069094;28;20020;-60
2023/06/01 03:26:12;;;;;;;13.20;6.60;;;11.50;99.90;;;;;;5043177;28;20037;-59
2023/06/01 03:28:38;;;;;;;14.00;6.03;;;11.50;99.90;;;;;;5063168;28;20164;-59
2023/06/01 03:31:04;;;;;;;13.70;6.43;;;11.40;99.90;;;;;;5062691;28;20025;-60
2023/06/01 03:33:30;;;;;;;13.45;7.07;;;11.40;99.90;;;;;;5062880;28;20044;-62
2023/06/01 03:35:56;;;;;;;11.10;6.10;;;11.40;99.90;;;;;;5062830;28;20101;-60
2023/06/01 03:38:22;;;;;;;13.88;6.38;;;11.40;99.90;;;;;;5068011;28;20025;-62
2023/06/01 03:40:48;;;;;;;12.45;7.03;;;11.40;99.90;;;;;;5063231;28;20031;-64
2023/06/01 03:43:14;;;;;;;12.15;6.95;;;11.40;99.90;;;;;;5046305;28;20016;-59
2023/06/01 03:45:39;;;;;;;10.68;5.47;;;11.40;99.90;;;;;;5062686;28;20107;-61
2023/06/01 03:48:05;;;;;;;11.05;6.03;;;11.40;99.90;;;;;;5062058;28;20029;-59
2023/06/01 03:50:31;;;;;;;9.40;5.18;;;11.40;99.90;;;;;;5064368;28;20031;-59
2023/06/01 03:52:56;;;;;;;10.27;5.78;;;11.40;99.90;;;;;;5067369;28;20090;-59
2023/06/01 03:55:22;;;;;;;13.63;6.28;;;11.40;99.90;;;;;;5061766;28;20040;-62
2023/06/01 03:57:48;;;;;;;11.63;6.53;;;11.40;99.90;;;;;;5064078;28;20486;-60
2023/06/01 04:00:19;;;;;;;14.15;6.22;;;11.40;99.90;;;;;;5063357;28;20451;-60
2023/06/01 04:02:54;;;;;;;12.80;6.32;;;11.50;99.90;;;;;;5064477;28;20020;-61
2023/06/01 04:05:21;;;;;;;15.32;6.18;;;11.50;99.90;;;;;;5071534;28;20032;-61
2023/06/01 04:07:48;;;;;;;10.95;5.80;;;11.50;99.90;;;;;;5066985;28;20028;-62
2023/06/01 04:10:16;;;;;;;12.60;7.13;;;11.50;99.90;;;;;;5058418;28;20358;-64
2023/06/01 04:12:43;;;;;;;17.70;5.90;;;11.50;99.90;;;;;;5073226;28;20029;-62
2023/06/01 04:15:11;;;;;;;16.60;6.82;;;11.50;99.90;;;;;;5065180;28;20056;-61
2023/06/01 04:17:37;;;;;;;11.82;6.13;;;11.40;99.90;;;;;;5064682;28;20039;-64
2023/06/01 04:20:07;;;;;;;12.60;5.40;;;11.40;99.90;;;;;;5048981;28;20059;-64
2023/06/01 04:22:35;;;;;;;;;;;11.40;99.90;;;;;;5066423;28;20109;-62
2023/06/01 04:25:01;;;;;;;9.55;5.32;;;11.30;99.90;;;;;;5069911;28;20360;-63
2023/06/01 04:27:28;;;;;;;15.63;5.93;;;11.30;99.90;;;;;;5071334;28;20082;-61
2023/06/01 04:29:54;;;;;;;14.98;6.00;;;11.40;99.90;;;;;;5071843;28;20028;-64
2023/06/01 04:32:22;;;;;;;12.15;5.53;;;11.40;99.90;;;;;;5066266;28;20107;-60
2023/06/01 04:34:51;;;;;;;18.20;7.82;;;11.50;99.90;;;;;;5069776;28;20039;-64
2023/06/01 04:37:21;;;;;;;11.82;5.82;;;11.50;99.90;;;;;;5069239;28;20081;-63
2023/06/01 04:39:50;;;;;;;19.23;6.75;;;11.50;99.90;;;;;;5070547;28;20060;-62
2023/06/01 04:42:16;;;;;;;11.77;5.72;;;11.60;99.90;;;;;;5073816;28;20491;-65
2023/06/01 04:44:49;;;;;;;15.38;6.45;;;11.70;99.90;;;;;;5072145;28;20017;-66
2023/06/01 04:47:16;;;;;;;12.70;6.45;;;11.60;99.90;;;;;;5068248;28;20508;-68
2023/06/01 04:49:43;;;;;;;13.93;5.85;;;11.60;99.90;;;;;;5062948;28;20044;-60
2023/06/01 04:52:10;;;;;;;13.18;6.57;;;11.60;99.90;;;;;;5067776;28;20026;-62
2023/06/01 04:54:36;;;;;;;12.65;5.55;;;11.60;99.90;;;;;;5069587;28;20393;-62
2023/06/01 04:57:02;;;;;;;11.88;6.00;;;11.60;99.90;;;;;;5074204;28;20070;-64
2023/06/01 04:59:27;;;;;;;14.50;5.40;;;11.60;99.90;;;;;;5073877;28;20052;-61
2023/06/01 05:01:54;;;;;;;11.18;6.50;;;11.60;99.90;;;;;;5069439;28;20107;-64
2023/06/01 05:04:20;;;;;;;10.63;5.40;;;11.60;99.90;;;;;;5066076;28;20048;-60
2023/06/01 05:06:46;;;;;;;11.57;5.90;;;11.60;99.90;;;;;;5060699;28;20025;-60
2023/06/01 05:09:13;;;;;;;18.08;6.40;;;11.60;99.90;;;;;;5072186;28;20085;-63
2023/06/01 05:11:38;;;;;;;15.35;6.20;;;11.60;99.90;;;;;;5070018;28;20020;-61
2023/06/01 05:14:04;;;;;;;15.38;5.50;;;11.60;99.90;;;;;;5070567;28;20036;-64
2023/06/01 05:16:30;;;;;;;12.25;5.95;;;11.60;99.90;;;;;;5071887;28;20139;-61
2023/06/01 05:18:56;;;;;;;10.55;5.63;;;11.60;99.90;;;;;;5072351;28;20028;-61
2023/06/01 05:21:21;;;;;;;14.18;5.75;;;11.60;99.90;;;;;;5063657;28;20024;-61
2023/06/01 05:23:47;;;;;;;16.38;6.18;;;11.60;99.90;;;;;;5060521;28;20027;-61
2023/06/01 05:26:13;;;;;;;12.32;6.28;;;11.60;99.90;;;;;;5058743;28;20435;-69
2023/06/01 05:28:38;;;;;;;11.02;6.20;;;11.70;99.90;;;;;;5060521;28;20028;-61
2023/06/01 05:31:05;;;;;;;13.38;6.05;;;11.70;99.90;;;;;;5066960;28;20052;-60
2023/06/01 05:33:30;;;;;;;13.93;5.95;;;11.70;99.90;;;;;;5045000;28;20029;-61
2023/06/01 05:35:56;;;;;;;14.63;7.50;;;11.80;99.90;;;;;;5055174;28;20020;-59
2023/06/01 05:38:22;;;;;;;8.93;5.72;;;11.80;99.90;;;;;;5071088;28;20060;-62
2023/06/01 05:40:47;;;;;;;12.57;6.10;;;11.80;99.90;;;;;;5073391;28;20036;-60
2023/06/01 05:43:15;;;;;;;14.43;6.50;;;11.80;99.90;;;;;;5071319;28;20385;-59
2023/06/01 05:45:41;;;;;;;11.55;5.90;;;11.90;99.90;;;;;;5072582;28;20393;-59
2023/06/01 05:48:06;;;;;;;11.70;5.50;;;12.00;99.90;;;;;;5054436;28;20488;-63
2023/06/01 05:50:32;;;;;;;12.07;6.88;;;12.00;99.90;;;;;;5054608;28;20082;-60
2023/06/01 05:52:58;;;;;;;11.65;5.57;;;12.10;99.90;;;;;;5046025;28;20025;-60
2023/06/01 05:55:23;;;;;;;14.70;5.80;;;12.00;99.90;;;;;;5063210;28;20045;-60
2023/06/01 05:57:49;;;;;;;9.50;4.93;;;12.00;99.90;;;;;;5062623;28;20035;-69
2023/06/01 06:00:15;;;;;;;12.48;5.82;;;12.00;99.90;;;;;;5069540;28;20099;-68
2023/06/01 06:02:42;;;;;;;14.88;5.32;;;12.10;99.90;;;;;;5069523;28;20074;-67
2023/06/01 06:05:09;;;;;;;11.30;5.55;;;12.10;99.90;;;;;;5044770;28;20048;-67
2023/06/01 06:07:35;;;;;;;10.23;5.25;;;12.20;99.90;;;;;;5056566;28;20020;-67
2023/06/01 06:10:01;;;;;;;11.48;5.18;;;12.30;99.90;;;;;;5072618;28;20094;-63
2023/06/01 06:12:27;;;;;;;11.45;5.55;;;12.30;99.90;;;;;;5068729;28;20029;-60
2023/06/01 06:14:52;;;;;;;11.35;5.60;;;12.30;99.90;;;;;;5069338;28;20054;-61
2023/06/01 06:17:18;;;;;;;12.38;5.35;;;12.30;99.90;;;;;;5065608;28;20032;-60
2023/06/01 06:19:44;;;;;;;13.85;5.53;;;12.20;99.90;;;;;;5052821;28;20485;-60
2023/06/01 06:22:10;;;;;;;12.30;5.22;;;12.20;99.90;;;;;;5068215;28;20400;-60
2023/06/01 06:24:36;;;;;;;13.85;4.55;;;12.40;99.90;;;;;;5069242;28;20077;-62
2023/06/01 06:27:02;;;;;;;11.73;5.22;;;12.50;99.90;;;;;;5070603;28;20485;-60
2023/06/01 06:29:28;;;;;;;10.90;4.72;;;12.80;99.90;;;;;;5051022;28;20013;-65
2023/06/01 06:31:54;;;;;;;11.40;5.60;;;13.00;99.90;;;;;;5071553;28;20112;-66
2023/06/01 06:34:19;;;;;;;10.30;4.45;;;13.10;99.90;;;;;;5063968;28;20100;-63
2023/06/01 06:36:46;;;;;;;11.30;4.88;;;13.20;99.90;;;;;;5054081;28;20025;-62
2023/06/01 06:39:12;;;;;;;10.30;4.30;;;13.30;99.90;;;;;;5068942;28;20029;-62
2023/06/01 06:41:40;;;;;;;13.25;5.30;;;13.40;99.90;;;;;;5053919;28;20020;-65
2023/06/01 06:44:06;;;;;;;10.75;5.75;;;13.40;99.90;;;;;;5066569;28;20086;-63
2023/06/01 06:46:31;;;;;;;12.35;5.22;;;13.50;99.90;;;;;;5053253;28;20028;-61
2023/06/01 06:48:57;;;;;;;12.52;6.15;;;13.50;99.90;;;;;;5061461;28;20389;-64
2023/06/01 06:51:22;;;;;;;12.70;5.22;;;13.60;99.90;;;;;;5065818;28;20036;-62
2023/06/01 06:53:48;;;;;;;15.80;6.10;;;13.60;99.90;;;;;;5069715;28;20106;-64
2023/06/01 06:56:14;;;;;;;10.70;4.65;;;13.50;99.90;;;;;;5062343;28;20028;-61
2023/06/01 06:58:40;;;;;;;13.40;4.90;;;13.50;99.90;;;;;;5070695;28;20082;-65
2023/06/01 07:01:05;;;;;;;9.40;4.85;;;13.50;99.90;;;;;;5070104;28;20040;-62
2023/06/01 07:03:32;;;;;;;15.85;5.72;;;13.50;99.90;;;;;;5070025;28;20028;-61
2023/06/01 07:05:58;;;;;;;12.40;5.05;;;13.60;99.90;;;;;;5051212;28;20178;-62
2023/06/01 07:08:23;;;;;;;12.77;5.95;;;13.70;99.90;;;;;;5068159;28;20033;-60
2023/06/01 07:10:49;;;;;;;12.77;6.13;;;13.70;99.90;;;;;;5069898;28;20465;-61
2023/06/01 07:13:15;;;;;;;17.42;5.70;;;13.80;99.90;;;;;;5069349;28;20025;-59
2023/06/01 07:15:40;;;;;;;8.48;4.75;;;13.90;99.90;;;;;;5059174;28;20036;-60
2023/06/01 07:18:06;;;;;;;13.95;6.03;;;14.10;99.90;;;;;;5057804;28;20102;-61
2023/06/01 07:20:33;;;;;;;14.02;4.85;;;14.10;99.90;;;;;;5058380;28;20037;-61
2023/06/01 07:22:59;;;;;;;12.70;5.70;;;14.10;99.90;;;;;;5059839;28;20401;-60
2023/06/01 07:25:24;;;;;;;9.32;5.10;;;14.20;99.90;;;;;;5056799;28;20029;-60
2023/06/01 07:27:50;;;;;;;12.05;5.00;;;14.20;99.90;;;;;;5060914;28;20060;-60
2023/06/01 07:30:16;;;;;;;9.98;4.68;;;14.30;99.90;;;;;;5058015;28;20096;-59
2023/06/01 07:32:42;;;;;;;11.40;5.50;;;14.20;99.90;;;;;;5057866;28;20123;-59
2023/06/01 07:35:08;;;;;;;11.55;5.32;;;14.20;99.90;;;;;;5074255;28;20021;-60
2023/06/01 07:37:34;;;;;;;12.20;6.05;;;14.20;99.90;;;;;;5062744;28;20102;-58
2023/06/01 07:40:00;;;;;;;8.98;4.75;;;14.20;99.90;;;;;;5062636;28;20032;-59
2023/06/01 07:42:27;;;;;;;11.82;4.63;;;14.00;99.90;;;;;;5063857;28;20112;-60
2023/06/01 07:44:53;;;;;;;10.30;4.25;;;14.00;99.90;;;;;;5045353;28;20035;-54
2023/06/01 07:47:20;;;;;;;9.93;4.70;;;13.90;99.90;;;;;;5072659;28;20107;-59
2023/06/01 07:49:46;;;;;;;10.27;4.85;;;13.80;99.90;;;;;;5072503;28;20027;-63
2023/06/01 07:52:12;;;;;;;11.60;4.43;;;13.80;99.90;;;;;;5073834;28;20028;-64
2023/06/01 07:54:38;;;;;;;9.02;5.05;;;13.80;99.90;;;;;;5046741;28;20384;-56
2023/06/01 07:57:05;;;;;;;7.82;3.83;;;13.90;99.90;;;;;;5071031;28;20079;-54
2023/06/01 07:59:31;;;;;;;11.93;5.05;;;14.10;99.90;;;;;;5068080;28;20405;-49
2023/06/01 08:01:58;;;;;;;9.98;3.80;;;14.50;99.90;;;;;;5053387;28;20039;-54
2023/06/01 08:04:24;;;;;;;7.97;3.53;;;14.70;99.90;;;;;;5071284;28;20380;-54
2023/06/01 08:06:52;;;;;;;10.20;5.18;;;14.80;99.90;;;;;;5069178;28;20509;-56
2023/06/01 08:09:21;;;;;;;8.20;4.75;;;14.70;99.90;;;;;;5048804;28;20497;-50
2023/06/01 08:11:48;;;;;;;10.68;5.20;;;14.60;99.90;;;;;;5067502;28;20111;-51
2023/06/01 08:14:16;;;;;;;12.07;4.90;;;14.60;99.90;;;;;;5064813;28;20070;-58
2023/06/01 08:16:42;;;;;;;9.90;4.70;;;14.60;99.90;;;;;;5069295;28;20025;-54
2023/06/01 08:19:08;;;;;;;9.20;4.70;;;14.70;99.90;;;;;;5063824;28;20116;-59
2023/06/01 08:21:34;;;;;;;10.70;4.68;;;14.80;99.90;;;;;;5070843;28;20103;-51
2023/06/01 08:24:01;;;;;;;8.52;4.18;;;14.90;99.90;;;;;;5072666;28;20032;-51
2023/06/01 08:26:28;;;;;;;6.90;3.85;;;15.10;99.90;;;;;;5051216;28;20035;-52
2023/06/01 08:28:54;;;;;;;7.50;4.30;;;15.30;99.90;;;;;;5072625;28;20104;-58
2023/06/01 08:31:24;;;;;;;8.85;4.30;;;15.50;99.90;;;;;;5066191;28;20111;-52
2023/06/01 08:33:51;;;;;;;8.77;4.18;;;15.70;99.90;;;;;;5069192;28;20413;-56
2023/06/01 08:36:18;;;;;;;8.98;4.25;;;15.70;99.90;;;;;;5069498;28;20028;-55
2023/06/01 08:38:45;;;;;;;11.52;4.93;;;15.70;99.90;;;;;;5073871;28;20032;-53
2023/06/01 08:41:13;;;;;;;9.25;4.45;;;15.70;99.90;;;;;;5072923;28;20040;-52
2023/06/01 08:43:39;;;;;;;8.75;4.47;;;15.60;99.90;;;;;;5074389;28;20028;-53
2023/06/01 08:46:05;;;;;;;11.52;5.53;;;15.40;99.90;;;;;;5068834;28;20024;-59
2023/06/01 08:48:32;;;;;;;9.98;4.95;;;15.30;99.90;;;;;;5065539;28;20036;-59
2023/06/01 08:51:00;;;;;;;10.68;5.43;;;15.30;99.90;;;;;;5067484;28;20053;-60
2023/06/01 08:53:28;;;;;;;10.90;4.88;;;15.30;99.90;;;;;;5046274;28;20115;-61
2023/06/01 08:55:56;;;;;;;7.55;4.82;;;15.50;99.90;;;;;;5063724;28;20024;-58
2023/06/01 08:58:22;;;;;;;11.40;4.68;;;15.40;99.90;;;;;;5047924;28;20040;-58
2023/06/01 09:00:49;;;;;;;10.02;4.85;;;15.40;99.90;;;;;;5064908;28;20047;-59
2023/06/01 09:03:14;;;;;;;9.13;4.63;;;15.30;99.90;;;;;;5069559;28;20539;-60
2023/06/01 09:05:40;;;;;;;10.02;4.82;;;15.30;99.90;;;;;;5049696;28;20024;-58
2023/06/01 09:08:06;;;;;;;8.65;4.25;;;15.30;99.90;;;;;;5072834;28;20103;-58
2023/06/01 09:10:32;;;;;;;10.48;4.50;;;15.20;99.90;;;;;;5074291;28;20056;-59
2023/06/01 09:12:57;;;;;;;11.00;4.47;;;15.20;99.90;;;;;;5063460;28;20448;-58
2023/06/01 09:15:25;;;;;;;8.18;4.57;;;15.30;99.90;;;;;;5065753;28;20039;-62
2023/06/01 09:17:52;;;;;;;7.40;4.22;;;15.30;99.90;;;;;;5065157;28;20028;-59
2023/06/01 09:20:28;;;;;;;8.68;4.40;;;15.40;99.90;;;;;;5066524;28;20033;-58
2023/06/01 09:22:55;;;;;;;11.77;4.93;;;15.60;99.90;;;;;;5064428;28;20056;-59
2023/06/01 09:25:28;;;;;;;9.68;5.00;;;15.70;99.90;;;;;;5074887;28;20028;-58
2023/06/01 09:27:56;;;;;;;10.98;4.70;;;15.70;99.90;;;;;;5066532;28;20025;-59
2023/06/01 09:30:23;;;;;;;11.30;5.20;;;15.70;99.90;;;;;;5066874;28;20052;-59
2023/06/01 09:32:53;;;;;;;9.45;5.40;;;15.90;99.90;;;;;;5067362;28;20017;-60
2023/06/01 09:35:39;;;;;;;8.43;4.82;;;15.90;99.90;;;;;;5074954;28;20028;-59
2023/06/01 09:38:06;;;;;;;11.30;5.25;;;16.00;99.90;;;;;;5063339;28;20017;-59
2023/06/01 09:40:33;;;;;;;8.68;4.60;;;16.00;99.90;;;;;;5054219;28;20047;-60
2023/06/01 09:42:59;;;;;;;10.55;5.07;;;16.10;99.90;;;;;;5063754;28;20013;-59
2023/06/01 09:45:25;;;;;;;9.18;4.78;;;16.10;99.90;;;;;;5062847;28;20120;-58
2023/06/01 09:47:52;;;;;;;10.50;4.93;;;16.30;99.90;;;;;;5065780;28;20026;-61
2023/06/01 09:50:38;;;;;;;11.27;5.65;;;16.40;99.90;;;;;;5068442;28;20031;-59
2023/06/01 09:53:07;;;;;;;9.80;5.43;;;16.60;99.90;;;;;;5067610;28;20021;-61
2023/06/01 09:55:32;;;;;;;13.65;5.40;;;16.70;99.90;;;;;;5073415;28;20063;-62
2023/06/01 09:58:19;;;;;;;10.70;5.05;;;16.70;99.90;;;;;;5054674;28;20052;-62
2023/06/01 10:00:47;;;;;;;11.88;4.85;;;16.60;99.90;;;;;;5060722;28;20127;-62
2023/06/01 10:03:14;;;;;;;8.32;5.15;;;16.40;99.90;;;;;;5069506;28;20029;-62
2023/06/01 10:05:40;;;;;;;7.93;5.00;;;16.30;99.90;;;;;;5068285;28;20070;-63
2023/06/01 10:08:06;;;;;;;10.88;5.05;;;16.20;99.90;;;;;;5064127;28;20028;-60
2023/06/01 10:10:33;;;;;;;9.65;5.30;;;16.10;99.90;;;;;;5070723;28;20028;-61
2023/06/01 10:12:58;;;;;;;9.45;5.68;;;16.20;99.90;;;;;;5072017;28;20044;-63
2023/06/01 10:15:24;;;;;;;11.48;5.57;;;16.20;99.90;;;;;;5053482;28;20029;-63
2023/06/01 10:17:50;;;;;;;9.25;4.68;;;16.30;99.90;;;;;;5054635;28;20078;-61
2023/06/01 10:20:16;;;;;;;10.20;5.50;;;16.30;99.90;;;;;;5067692;28;20032;-60
2023/06/01 10:22:42;;;;;;;8.27;4.80;;;16.30;99.90;;;;;;5072610;28;20782;-62
2023/06/01 10:25:12;;;;;;;13.18;5.90;;;16.30;99.90;;;;;;5071533;28;20028;-62
2023/06/01 10:27:52;;;;;;;10.68;5.95;;;16.40;99.90;;;;;;5072564;28;20025;-63
2023/06/01 10:30:17;;;;;;;12.98;5.72;;;16.50;99.90;;;;;;5052079;28;20024;-61
2023/06/01 10:32:44;;;;;;;13.57;5.85;;;16.50;99.90;;;;;;5068175;28;20102;-62
2023/06/01 10:35:25;;;;;;;11.88;5.35;;;16.60;99.90;;;;;;5065310;28;20022;-61
2023/06/01 10:38:06;;;;;;;;;;;16.60;99.90;;;;;;5073253;28;20043;-63
2023/06/01 10:40:33;;;;;;;9.20;5.15;;;16.60;99.90;;;;;;5060418;28;19999;-62
2023/06/01 10:42:59;;;;;;;11.40;6.03;;;16.60;99.90;;;;;;5066677;28;20021;-61
2023/06/01 10:45:34;;;;;;;10.50;5.43;;;16.70;99.90;;;;;;5066796;28;20519;-62
2023/06/01 10:48:01;;;;;;;9.18;4.95;;;16.70;99.90;;;;;;5065817;28;20025;-62
2023/06/01 10:50:27;;;;;;;12.13;5.72;;;16.80;99.90;;;;;;5047357;28;20503;-62
2023/06/01 10:52:54;;;;;;;11.85;6.13;;;16.90;99.90;;;;;;5072895;28;20028;-60
2023/06/01 10:55:22;;;;;;;13.75;6.53;;;16.90;99.90;;;;;;5059810;28;20115;-62
2023/06/01 10:57:48;;;;;;;11.75;5.80;;;16.90;99.90;;;;;;5052844;28;20484;-62
2023/06/01 11:00:15;;;;;;;10.02;5.28;;;16.90;99.50;;;;;;5059268;28;20048;-63
2023/06/01 11:02:52;;;;;;;13.65;4.90;;;16.90;99.30;;;;;;5065576;28;20477;-62
2023/06/01 11:05:43;;;;;;;9.10;5.60;;;16.90;99.80;;;;;;5062280;28;20024;-63
2023/06/01 11:08:30;;;;;;;10.02;5.28;;;17.00;99.50;;;;;;5065766;28;20033;-63
2023/06/01 11:11:00;;;;;;;8.55;5.47;;;17.00;99.40;;;;;;5063524;28;20120;-62
2023/06/01 11:13:31;;;;;;;11.75;5.57;;;16.90;99.40;;;;;;5064700;28;20024;-62
2023/06/01 11:16:39;;;;;;;12.82;7.15;;;17.00;98.80;;;;;;5069256;28;20115;-64
2023/06/01 11:19:00;;;;;;;14.00;5.93;;;17.00;98.80;;;;;;5069594;28;20385;-63
2023/06/01 11:21:37;;;;;;;12.20;6.32;;;16.90;98.70;;;;;;5057774;28;20413;-63
2023/06/01 11:24:15;;;;;;;11.73;6.28;;;16.90;98.90;;;;;;5058327;28;20021;-62
2023/06/01 11:26:46;;;;;;;10.20;5.88;;;17.00;99.50;;;;;;5056315;28;20028;-62
2023/06/01 11:29:16;;;;;;;11.63;6.20;;;17.10;98.70;;;;;;5054969;28;20054;-62
2023/06/01 11:31:52;;;;;;;9.55;5.60;;;17.10;98.60;;;;;;5071259;28;20020;-63
2023/06/01 11:34:18;;;;;;;11.77;5.82;;;17.20;98.80;;;;;;5068680;28;20062;-62
2023/06/01 11:36:48;;;;;;;13.93;5.97;;;17.20;98.00;;;;;;5071550;28;20024;-63
2023/06/01 11:39:24;;;;;;;8.70;5.00;;;17.20;97.30;;;;;;5072417;28;20037;-64
2023/06/01 11:42:05;;;;;;;12.10;5.53;;;17.10;97.80;;;;;;5067888;28;20024;-63
2023/06/01 11:44:34;;;;;;;12.17;6.37;;;17.20;98.00;;;;;;5056413;28;20549;-62
2023/06/01 11:47:01;;;;;;;10.27;5.22;;;17.20;97.80;;;;;;5070763;28;20032;-63
2023/06/01 11:49:27;;;;;;;8.85;4.70;;;17.30;98.10;;;;;;5071215;28;20016;-63
2023/06/01 11:51:55;;;;;;;13.18;6.85;;;17.40;97.70;;;;;;5070464;28;20067;-60
2023/06/01 11:54:26;;;;;;;8.45;5.38;;;17.50;97.60;;;;;;5071734;28;20025;-62
2023/06/01 11:56:53;;;;;;;13.88;5.25;;;17.60;97.40;;;;;;5068347;28;20035;-63
2023/06/01 11:59:19;;;;;;;7.93;4.80;;;17.60;97.20;;;;;;5071422;28;20052;-62
2023/06/01 12:01:50;;;;;;;9.70;5.43;;;17.60;97.40;;;;;;5069985;28;20083;-62
2023/06/01 12:04:17;;;;;;;10.57;5.38;;;17.60;97.70;;;;;;5071513;28;20146;-62
2023/06/01 12:06:44;;;;;;;12.25;5.78;;;17.70;98.10;;;;;;5065401;28;20102;-63
2023/06/01 12:09:12;;;;;;;9.85;5.55;;;17.80;97.50;;;;;;5070546;28;20396;-62
2023/06/01 12:11:38;;;;;;;11.88;4.93;;;17.90;97.40;;;;;;5051910;28;20107;-61
2023/06/01 12:14:05;;;;;;;14.32;6.13;;;17.90;97.00;;;;;;5071905;28;20023;-63
2023/06/01 12:16:54;;;;;;;11.75;5.68;;;18.00;96.50;;;;;;5055783;28;20380;-61
2023/06/01 12:19:21;;;;;;;9.38;5.45;;;18.00;95.90;;;;;;5070821;28;20036;-61
2023/06/01 12:21:55;;;;;;;8.60;4.70;;;18.00;95.80;;;;;;5066532;28;20108;-61
2023/06/01 12:24:33;;;;;;;10.65;5.63;;;18.00;95.80;;;;;;5055725;28;20131;-61
2023/06/01 12:27:21;;;;;;;9.15;4.40;;;17.90;95.10;;;;;;5064508;28;20025;-62
2023/06/01 12:29:50;;;;;;;10.48;4.97;;;17.90;95.80;;;;;;5055657;28;20036;-61
2023/06/01 12:32:17;;;;;;;10.00;4.93;;;18.00;95.40;;;;;;5039946;28;20017;-63
2023/06/01 12:34:47;;;;;;;12.40;4.38;;;18.00;95.70;;;;;;5054794;28;20025;-63
2023/06/01 12:37:19;;;;;;;9.02;4.85;;;18.10;94.90;;;;;;5069963;28;20016;-63
2023/06/01 12:39:53;;;;;;;9.70;4.63;;;18.10;94.50;;;;;;5063783;28;20123;-61
2023/06/01 12:42:36;;;;;;;8.95;4.78;;;18.20;95.20;;;;;;5059506;28;20017;-62
2023/06/01 12:45:02;;;;;;;9.02;4.53;;;18.30;95.40;;;;;;5037473;28;20033;-62